メインページ
METAR-TAF:

METAR-TAF

空港 :

大分, 日本

大分空港

緯度: 33-29N, 経度: 131-44E, 海抜: 5m

現時点の気象観測

当レポートは56分前の23:00(UTC)に作成
変向風 1kt
気温 6°C
湿度 75%
気圧 1022 hPa
視程10km以上
高度1500ftの雲はほとんどない
高度6000ftの雲は散在している
高度8000ftの千切れ雲あり

METAR: RJFO 182300Z VRB01KT 9999 FEW015 SCT060 BKN080 06/02 Q1022

時間: 08:56 (23:56 UTC)

予報

当レポートは47分前の23:09(UTC)に作成
予報は19日の 00時(UTC)から 20日の 06時(UTC)まで有効
北/北東の風 6kt
視程: 8000m
高度1500ftの雲はほとんどない
高度2500ftの雲は散在している
高度5000ftの千切れ雲あり
小雨
19日の 05時(UTC)から 19日の 07時(UTC)まで徐々に
南/南西の風 4kt
19日の 18時(UTC)から 19日の 21時(UTC)まで徐々に
北/北東の風 9kt

TAF: RJFO 182309Z 1900/2006 02006KT 8000 -RA FEW015 SCT025 BKN050 BECMG 1905/1907 20004KT BECMG 1918/1921 03009KT

4,000以上の空港の気象観測と天気予報(METAR報とTAF報)

利用可能な観測所は地図上に黄色い丸と赤い丸で示す。

丸の上にカーソルを重ねると観測所名を参照できる。

次にクリックすると気象観測と天気予報を参照できる。

マップの切り替え:黒色「×」印の緑ボタンをクリックして拡大、「-」印の緑ボタンをクリックして縮小、緑色の三角印をクリックして隣りの地図に切り替え


METAR-TAF: